Time;durP1;ratioP1;P1;durP2;ratioP2;P2;SDS_P1;SDS_P2;PMS_P1;PMS_P2;Temp;Humidity;BMP_temperature;BMP_pressure;BME280_temperature;BME280_humidity;BME280_pressure;Samples;Min_cycle;Max_cycle;Signal;HPM_P1;HPM_P2
2023/03/16 00:00:08;;;;;;;;;;;7.00;92.10;7.50;99733.00;;;;344473;28;90864;-92
2023/03/16 00:00:20;;;;;;;;;;;7.00;92.60;7.40;99733.00;;;;342863;28;83405;-91
2023/03/16 00:00:32;;;;;;;;;;;6.90;92.80;7.20;99730.00;;;;345215;28;90783;-91
2023/03/16 00:00:44;;;;;;;;;;;6.90;92.60;7.30;99736.00;;;;345957;28;82412;-90
2023/03/16 00:00:56;;;;;;;;;;;7.00;92.70;7.50;99734.00;;;;344342;28;86817;-90
2023/03/16 00:01:08;;;;;;;;;;;7.00;92.50;7.40;99725.00;;;;344589;28;82573;-90
2023/03/16 00:01:21;;;;;;;;;;;7.00;92.70;7.30;99744.00;;;;345461;28;89513;-91
2023/03/16 00:01:32;;;;;;;;;;;7.00;92.80;7.30;99741.00;;;;346036;28;82340;-90
2023/03/16 00:01:44;;;;;;;;;;;6.90;92.70;7.20;99737.00;;;;344395;28;91295;-92
2023/03/16 00:01:56;;;;;;;;;;;7.00;92.70;7.20;99733.00;;;;343861;28;82387;-90
2023/03/16 00:02:08;;;;;;;;;;;6.90;92.60;7.40;99732.00;;;;344390;28;88377;-90
2023/03/16 00:02:20;;;;;;;;;;;7.00;92.60;7.50;99738.00;;;;343457;28;82561;-90
2023/03/16 00:02:32;;;;;;;;;;;6.90;92.60;7.60;99731.00;;;;344660;28;91468;-90
2023/03/16 00:02:44;;;;;;;;;;;6.90;92.40;7.60;99736.00;;;;345199;28;82455;-91
2023/03/16 00:02:56;;;;;;;;;;;6.90;92.40;7.60;99728.00;;;;344479;28;87828;-91
2023/03/16 00:03:09;;;;;;;;;;;7.00;92.40;7.60;99732.00;;;;346622;28;82067;-89
2023/03/16 00:03:21;;;;;;;;;;;6.90;92.40;7.40;99737.00;;;;345890;28;87767;-90
2023/03/16 00:03:33;;;;;;;;;;;7.00;92.50;7.40;99735.00;;;;346112;28;82564;-91
2023/03/16 00:03:45;;;;;;;;;;;7.00;92.70;7.50;99732.00;;;;344159;28;89111;-90
2023/03/16 00:03:57;;;;;;;;;;;7.00;92.50;7.40;99736.00;;;;344582;28;82268;-91
2023/03/16 00:04:08;;;;;;;;;;;7.00;92.60;7.50;99740.00;;;;347112;28;88247;-89
2023/03/16 00:04:20;;;;;;;;;;;6.90;92.50;7.50;99737.00;;;;345956;28;83319;-91
2023/03/16 00:04:36;;;;;;;;;;;7.00;92.30;7.50;99733.00;;;;345581;28;90451;-91
2023/03/16 00:04:48;;;;;;;;;;;7.00;92.30;7.40;99738.00;;;;344962;28;82179;-91
2023/03/16 00:05:00;;;;;;;;;;;7.00;92.40;7.40;99735.00;;;;345676;28;90511;-91
2023/03/16 00:05:12;;;;;;;;;;;7.00;92.40;7.40;99736.00;;;;346038;28;82369;-91
2023/03/16 00:05:24;;;;;;;;;;;6.90;92.40;7.40;99736.00;;;;344891;28;92362;-92
2023/03/16 00:05:37;;;;;;;;;;;6.90;92.50;7.30;99738.00;;;;345072;28;82533;-91
2023/03/16 00:05:51;;;;;;;;;;;6.90;92.80;7.40;99736.00;;;;344455;28;92688;-91
2023/03/16 00:06:03;;;;;;;;;;;6.90;92.70;7.40;99733.00;;;;344573;28;82512;-91
2023/03/16 00:06:15;;;;;;;;;;;6.90;92.40;7.40;99749.00;;;;345372;28;89483;-91
2023/03/16 00:06:27;;;;;;;;;;;6.90;92.60;7.40;99737.00;;;;344614;28;83397;-92
2023/03/16 00:06:39;;;;;;;;;;;6.90;92.70;7.40;99738.00;;;;346560;28;89515;-92
2023/03/16 00:06:50;;;;;;;;;;;6.90;93.00;7.40;99735.00;;;;345892;28;83501;-92
2023/03/16 00:07:04;;;;;;;;;;;6.90;92.40;7.30;99737.00;;;;345500;28;92288;-92
2023/03/16 00:07:15;;;;;;;;;;;6.90;92.30;7.50;99739.00;;;;344855;28;83331;-91
2023/03/16 00:07:27;;;;;;;;;;;6.90;92.30;7.40;99736.00;;;;345630;28;90221;-91
2023/03/16 00:07:40;;;;;;;;;;;6.90;92.40;7.50;99739.00;;;;346048;28;83400;-92
2023/03/16 00:07:52;;;;;;;;;;;6.90;92.20;7.40;99738.00;;;;345288;28;91520;-91
2023/03/16 00:08:04;;;;;;;;;;;6.90;92.20;7.30;99738.00;;;;344892;28;82425;-91
2023/03/16 00:08:16;;;;;;;;;;;6.90;92.50;7.40;99737.00;;;;341546;28;88892;-92
2023/03/16 00:08:28;;;;;;;;;;;6.90;92.80;7.40;99736.00;;;;343445;28;83344;-92
2023/03/16 00:08:42;;;;;;;;;;;6.90;93.00;7.40;99729.00;;;;344360;28;89600;-92
2023/03/16 00:08:57;;;;;;;;;;;6.90;92.60;7.40;99728.00;;;;344762;28;83197;-91
2023/03/16 00:09:09;;;;;;;;;;;6.90;92.60;7.60;99730.00;;;;345611;28;90968;-91
2023/03/16 00:09:21;;;;;;;;;;;6.90;92.60;7.50;99732.00;;;;344712;28;82456;-91
2023/03/16 00:09:33;;;;;;;;;;;6.90;92.60;7.50;99731.00;;;;342880;28;89212;-91
2023/03/16 00:09:45;;;;;;;;;;;6.90;92.40;7.60;99731.00;;;;343337;28;82627;-92
2023/03/16 00:09:57;;;;;;;;;;;6.90;92.30;7.50;99733.00;;;;344239;28;90457;-91
2023/03/16 00:10:11;;;;;;;;;;;6.90;92.60;7.60;99725.00;;;;343261;28;83593;-91
2023/03/16 00:10:26;;;;;;;;;;;6.90;92.50;7.60;99727.00;;;;343944;28;90899;-91
2023/03/16 00:10:38;;;;;;;;;;;6.90;92.60;7.70;99723.00;;;;343160;28;83457;-91
2023/03/16 00:10:52;;;;;;;;;;;6.90;92.70;7.60;99722.00;;;;344321;28;88186;-92
2023/03/16 00:11:04;;;;;;;;;;;6.90;92.80;7.60;99719.00;;;;345967;28;83484;-91
2023/03/16 00:11:16;;;;;;;;;;;6.90;92.70;7.40;99728.00;;;;344281;28;88964;-91
2023/03/16 00:11:28;;;;;;;;;;;6.90;93.00;7.30;99733.00;;;;343369;28;83273;-92
2023/03/16 00:11:41;;;;;;;;;;;6.90;93.00;7.40;99724.00;;;;340237;28;89125;-91
2023/03/16 00:11:52;;;;;;;;;;;6.90;93.00;7.50;99735.00;;;;343095;28;83354;-89
2023/03/16 00:12:04;;;;;;;;;;;6.90;92.90;7.50;99728.00;;;;341452;28;93076;-91
2023/03/16 00:12:17;;;;;;;;;;;6.90;92.90;7.50;99731.00;;;;344340;28;83525;-91
2023/03/16 00:12:33;;;;;;;;;;;6.90;92.90;7.50;99728.00;;;;343010;28;89129;-92
2023/03/16 00:12:45;;;;;;;;;;;6.90;92.90;7.50;99731.00;;;;341951;28;83546;-92
2023/03/16 00:12:57;;;;;;;;;;;6.90;93.00;7.40;99729.00;;;;344050;28;91525;-91
2023/03/16 00:13:09;;;;;;;;;;;6.90;93.20;7.40;99731.00;;;;344915;28;82456;-91
2023/03/16 00:13:25;;;;;;;;;;;6.90;93.20;7.50;99728.00;;;;342978;28;89323;-91
2023/03/16 00:13:37;;;;;;;;;;;6.90;92.90;7.50;99735.00;;;;343433;28;83296;-91
2023/03/16 00:13:49;;;;;;;;;;;6.90;92.70;7.40;99723.00;;;;344213;28;88982;-91
2023/03/16 00:14:03;;;;;;;;;;;6.90;92.70;7.30;99735.00;;;;345994;28;82424;-92
2023/03/16 00:14:14;;;;;;;;;;;6.90;93.10;7.40;99729.00;;;;342822;28;92200;-92
2023/03/16 00:14:26;;;;;;;;;;;6.90;93.10;7.40;99736.00;;;;344779;28;83495;-92
2023/03/16 00:14:38;;;;;;;;;;;6.90;93.00;7.30;99729.00;;;;342817;28;89297;-92
2023/03/16 00:14:50;;;;;;;;;;;6.90;93.20;7.30;99727.00;;;;343119;28;83508;-91
2023/03/16 00:15:03;;;;;;;;;;;6.90;93.20;7.30;99730.00;;;;345598;28;91794;-91
2023/03/16 00:15:15;;;;;;;;;;;6.90;93.20;7.20;99733.00;;;;344749;28;82490;-91
2023/03/16 00:15:28;;;;;;;;;;;6.90;93.10;7.20;99725.00;;;;344052;28;90627;-92
2023/03/16 00:15:40;;;;;;;;;;;6.80;93.20;7.20;99735.00;;;;344621;28;82696;-91
2023/03/16 00:15:54;;;;;;;;;;;6.80;93.40;7.20;99738.00;;;;343017;28;86818;-91
2023/03/16 00:16:06;;;;;;;;;;;6.80;93.50;7.20;99733.00;;;;344888;28;83395;-91
2023/03/16 00:16:18;;;;;;;;;;;6.80;93.40;7.20;99736.00;;;;342752;28;90160;-91
2023/03/16 00:16:30;;;;;;;;;;;6.80;93.50;7.20;99733.00;;;;341920;28;83489;-91
2023/03/16 00:16:42;;;;;;;;;;;6.80;93.60;7.20;99730.00;;;;342750;28;91216;-91
2023/03/16 00:16:54;;;;;;;;;;;6.80;93.50;7.20;99737.00;;;;343283;28;83544;-91
2023/03/16 00:17:06;;;;;;;;;;;6.80;93.40;7.30;99731.00;;;;341634;28;87399;-92
2023/03/16 00:17:18;;;;;;;;;;;6.80;93.00;7.30;99734.00;;;;340774;28;83415;-91
2023/03/16 00:17:31;;;;;;;;;;;6.80;93.00;7.30;99742.00;;;;344088;28;89324;-92
2023/03/16 00:17:47;;;;;;;;;;;6.80;92.80;7.30;99730.00;;;;343290;28;83442;-92
2023/03/16 00:17:59;;;;;;;;;;;6.80;92.90;7.30;99729.00;;;;343018;28;88479;-92
2023/03/16 00:18:11;;;;;;;;;;;6.80;92.90;7.30;99738.00;;;;344562;28;82622;-91
2023/03/16 00:18:26;;;;;;;;;;;6.80;92.90;7.40;99735.00;;;;340257;28;89011;-91
2023/03/16 00:18:38;;;;;;;;;;;6.80;92.70;7.30;99737.00;;;;344696;28;83352;-91
2023/03/16 00:18:49;;;;;;;;;;;6.80;92.80;7.40;99729.00;;;;342809;28;89309;-91
2023/03/16 00:19:04;;;;;;;;;;;6.80;92.70;7.40;99732.00;;;;342059;28;83457;-91
2023/03/16 00:19:16;;;;;;;;;;;6.80;92.60;7.30;99732.00;;;;344343;28;91557;-91
2023/03/16 00:19:28;;;;;;;;;;;6.80;92.80;7.40;99735.00;;;;343336;28;83343;-91
2023/03/16 00:19:45;;;;;;;;;;;6.80;92.70;7.40;99725.00;;;;344079;28;92070;-91
2023/03/16 00:19:57;;;;;;;;;;;6.80;92.70;7.20;99732.00;;;;343340;28;83499;-91
2023/03/16 00:20:09;;;;;;;;;;;6.80;93.00;7.20;99735.00;;;;341618;28;91716;-91
2023/03/16 00:20:21;;;;;;;;;;;6.70;93.20;7.30;99734.00;;;;343316;28;83387;-91
2023/03/16 00:20:33;;;;;;;;;;;6.80;93.10;7.40;99732.00;;;;341557;28;91151;-91
2023/03/16 00:20:50;;;;;;;;;;;6.80;92.90;7.40;99737.00;;;;343368;28;83202;-91
2023/03/16 00:21:01;;;;;;;;;;;6.80;92.90;7.30;99738.00;;;;341299;28;87715;-91
2023/03/16 00:21:13;;;;;;;;;;;6.80;92.70;7.30;99735.00;;;;343363;28;83433;-92
2023/03/16 00:21:25;;;;;;;;;;;6.80;92.70;7.30;99727.00;;;;341594;28;90683;-91
2023/03/16 00:21:37;;;;;;;;;;;6.80;92.90;7.30;99729.00;;;;343295;28;83365;-91
2023/03/16 00:21:50;;;;;;;;;;;6.80;93.10;7.30;99736.00;;;;341678;28;89359;-92
2023/03/16 00:22:01;;;;;;;;;;;6.70;92.90;7.30;99726.00;;;;344768;28;82537;-91
2023/03/16 00:22:14;;;;;;;;;;;6.70;92.90;7.30;99730.00;;;;340259;28;89425;-92
2023/03/16 00:22:27;;;;;;;;;;;6.70;93.00;7.30;99734.00;;;;343441;28;83202;-91
2023/03/16 00:22:41;;;;;;;;;;;6.70;93.10;7.30;99722.00;;;;342911;28;92299;-91
2023/03/16 00:22:52;;;;;;;;;;;6.70;93.10;7.40;99727.00;;;;343051;28;83659;-92
2023/03/16 00:23:04;;;;;;;;;;;6.70;92.90;7.40;99726.00;;;;344191;28;91632;-92
2023/03/16 00:23:16;;;;;;;;;;;6.70;92.80;7.40;99725.00;;;;344616;28;82423;-91
2023/03/16 00:23:28;;;;;;;;;;;6.80;92.80;7.50;99722.00;;;;341614;28;88816;-91
2023/03/16 00:23:41;;;;;;;;;;;6.80;93.00;7.40;99725.00;;;;343393;28;83499;-92
2023/03/16 00:23:53;;;;;;;;;;;6.70;92.90;7.30;99732.00;;;;342655;28;91017;-91
2023/03/16 00:24:05;;;;;;;;;;;6.70;92.90;7.30;99734.00;;;;345828;28;83583;-92
2023/03/16 00:24:18;;;;;;;;;;;6.70;93.20;7.30;99730.00;;;;344159;28;91913;-91
2023/03/16 00:24:30;;;;;;;;;;;6.70;93.30;7.30;99728.00;;;;343313;28;82363;-92
2023/03/16 00:24:42;;;;;;;;;;;6.80;93.30;7.40;99725.00;;;;342925;28;93064;-92
2023/03/16 00:24:54;;;;;;;;;;;6.70;93.20;7.50;99730.00;;;;344691;28;83419;-91
2023/03/16 00:25:07;;;;;;;;;;;6.70;93.00;7.50;99721.00;;;;342989;28;91508;-90
2023/03/16 00:25:19;;;;;;;;;;;6.70;93.10;7.40;99726.00;;;;342129;28;82514;-92
2023/03/16 00:25:32;;;;;;;;;;;6.80;93.40;7.40;99727.00;;;;344061;28;90237;-91
2023/03/16 00:25:44;;;;;;;;;;;6.80;93.20;7.30;99732.00;;;;346018;28;82427;-91
2023/03/16 00:25:57;;;;;;;;;;;6.70;93.30;7.20;99720.00;;;;341530;28;87636;-92
2023/03/16 00:26:11;;;;;;;;;;;6.80;93.50;7.10;99727.00;;;;341993;28;83313;-91
2023/03/16 00:26:24;;;;;;;;;;;6.70;93.70;7.10;99733.00;;;;344309;28;90682;-91
2023/03/16 00:26:36;;;;;;;;;;;6.70;93.80;7.30;99728.00;;;;344774;28;82446;-91
2023/03/16 00:26:48;;;;;;;;;;;6.70;93.70;7.30;99729.00;;;;344296;28;87758;-91
2023/03/16 00:27:00;;;;;;;;;;;6.70;93.60;7.40;99731.00;;;;342879;28;82705;-91
2023/03/16 00:27:13;;;;;;;;;;;6.70;93.70;7.40;99737.00;;;;343024;28;88763;-91
2023/03/16 00:27:25;;;;;;;;;;;6.70;93.30;7.50;99732.00;;;;344580;28;82426;-91
2023/03/16 00:27:37;;;;;;;;;;;6.70;93.20;7.40;99732.00;;;;344075;28;90466;-91
2023/03/16 00:27:49;;;;;;;;;;;6.70;93.50;7.30;99732.00;;;;345976;28;82600;-91
2023/03/16 00:28:03;;;;;;;;;;;6.70;93.60;7.20;99728.00;;;;343012;28;88387;-91
2023/03/16 00:28:15;;;;;;;;;;;6.70;93.80;7.30;99734.00;;;;344494;28;83307;-91
2023/03/16 00:28:27;;;;;;;;;;;6.70;93.50;7.30;99726.00;;;;342937;28;89109;-92
2023/03/16 00:28:41;;;;;;;;;;;6.70;93.30;7.30;99731.00;;;;344873;28;82471;-92
2023/03/16 00:28:53;;;;;;;;;;;6.70;93.20;7.30;99732.00;;;;341451;28;90474;-91
2023/03/16 00:29:05;;;;;;;;;;;6.70;93.20;7.40;99736.00;;;;343122;28;83593;-91
2023/03/16 00:29:17;;;;;;;;;;;6.70;93.10;7.20;99725.00;;;;343078;28;87204;-92
2023/03/16 00:29:29;;;;;;;;;;;6.70;93.40;7.20;99727.00;;;;343205;28;83390;-91
2023/03/16 00:29:48;;;;;;;;;;;6.70;93.50;7.10;99733.00;;;;344263;28;89185;-91
2023/03/16 00:30:02;;;;;;;;;;;6.70;93.70;7.30;99727.00;;;;343367;28;83342;-92
2023/03/16 00:30:14;;;;;;;;;;;6.70;93.50;7.30;99737.00;;;;342884;28;88045;-91
2023/03/16 00:30:26;;;;;;;;;;;6.70;93.30;7.30;99727.00;;;;343178;28;83603;-93
2023/03/16 00:30:38;;;;;;;;;;;6.70;93.20;7.30;99732.00;;;;345714;28;88180;-91
2023/03/16 00:30:50;;;;;;;;;;;6.70;93.10;7.30;99739.00;;;;343208;28;83374;-91
2023/03/16 00:31:06;;;;;;;;;;;6.70;93.10;7.20;99731.00;;;;344138;28;91154;-91
2023/03/16 00:31:18;;;;;;;;;;;6.70;93.30;7.30;99734.00;;;;342155;28;83102;-92
2023/03/16 00:31:32;;;;;;;;;;;6.70;93.40;7.20;99729.00;;;;340422;28;90418;-91
2023/03/16 00:31:44;;;;;;;;;;;6.70;93.50;7.30;99732.00;;;;344604;28;83531;-91
2023/03/16 00:31:56;;;;;;;;;;;6.70;93.50;7.30;99736.00;;;;343026;28;91604;-91
2023/03/16 00:32:08;;;;;;;;;;;6.70;93.50;7.30;99737.00;;;;344721;28;83449;-91
2023/03/16 00:32:22;;;;;;;;;;;6.70;93.30;7.20;99731.00;;;;341678;28;90309;-92
2023/03/16 00:32:35;;;;;;;;;;;6.70;93.50;7.10;99729.00;;;;344808;28;82523;-92
2023/03/16 00:32:47;;;;;;;;;;;6.70;93.90;7.20;99731.00;;;;341429;28;90030;-90
2023/03/16 00:33:00;;;;;;;;;;;6.70;93.90;7.20;99730.00;;;;345925;28;83650;-91
2023/03/16 00:33:12;;;;;;;;;;;6.70;93.90;7.10;99736.00;;;;343071;28;88973;-91
2023/03/16 00:33:25;;;;;;;;;;;6.70;94.00;7.00;99729.00;;;;342082;28;82497;-91
2023/03/16 00:33:37;;;;;;;;;;;6.70;94.10;7.00;99732.00;;;;341532;28;90405;-92
2023/03/16 00:33:49;;;;;;;;;;;6.70;94.20;7.10;99727.00;;;;343273;28;82562;-92
2023/03/16 00:34:01;;;;;;;;;;;6.70;94.20;7.10;99731.00;;;;344083;28;89670;-90
2023/03/16 00:34:14;;;;;;;;;;;6.70;94.30;7.10;99733.00;;;;344888;28;82431;-91
2023/03/16 00:34:28;;;;;;;;;;;6.70;94.00;7.10;99731.00;;;;344232;28;89002;-91
2023/03/16 00:34:41;;;;;;;;;;;6.70;93.70;7.10;99729.00;;;;344648;28;82587;-91
2023/03/16 00:34:53;;;;;;;;;;;6.70;93.70;7.00;99726.00;;;;341393;28;89147;-92
2023/03/16 00:35:05;;;;;;;;;;;6.60;94.10;7.00;99725.00;;;;343414;28;82232;-91
2023/03/16 00:35:20;;;;;;;;;;;6.60;94.60;7.00;99726.00;;;;342756;28;92037;-92
2023/03/16 00:35:33;;;;;;;;;;;6.60;94.30;7.00;99730.00;;;;344706;28;83304;-91
2023/03/16 00:35:49;;;;;;;;;;;6.60;94.10;7.10;99736.00;;;;345792;28;88124;-91
2023/03/16 00:36:03;;;;;;;;;;;6.60;94.00;7.10;99727.00;;;;344770;28;83295;-91
2023/03/16 00:36:15;;;;;;;;;;;6.60;93.90;7.10;99730.00;;;;343881;28;90433;-92
2023/03/16 00:36:32;;;;;;;;;;;6.60;93.70;7.10;99725.00;;;;341828;28;83484;-91
2023/03/16 00:36:44;;;;;;;;;;;6.60;93.60;7.10;99730.00;;;;344274;28;89359;-92
2023/03/16 00:36:56;;;;;;;;;;;6.60;93.50;7.10;99728.00;;;;343094;28;83537;-92
2023/03/16 00:37:08;;;;;;;;;;;6.50;93.70;7.20;99725.00;;;;342922;28;90299;-91
2023/03/16 00:37:22;;;;;;;;;;;6.60;93.80;7.30;99725.00;;;;344732;28;82282;-92
2023/03/16 00:37:35;;;;;;;;;;;6.60;94.00;7.40;99727.00;;;;343912;28;92505;-92
2023/03/16 00:37:47;;;;;;;;;;;6.60;94.10;7.20;99719.00;;;;344745;28;83402;-92
2023/03/16 00:37:59;;;;;;;;;;;6.60;94.40;7.10;99718.00;;;;344051;28;90602;-91
2023/03/16 00:38:11;;;;;;;;;;;6.60;94.40;7.20;99717.00;;;;343385;28;83440;-91
2023/03/16 00:38:23;;;;;;;;;;;6.60;94.20;7.10;99726.00;;;;342691;28;92015;-91
2023/03/16 00:38:36;;;;;;;;;;;6.60;94.00;7.10;99721.00;;;;343380;28;83478;-91
2023/03/16 00:38:48;;;;;;;;;;;6.60;93.90;7.20;99724.00;;;;344133;28;87968;-91
2023/03/16 00:39:01;;;;;;;;;;;6.60;93.80;7.20;99709.00;;;;341810;28;83536;-91
2023/03/16 00:39:13;;;;;;;;;;;6.60;93.70;7.20;99714.00;;;;344173;28;88400;-92
2023/03/16 00:39:25;;;;;;;;;;;6.60;93.90;7.20;99717.00;;;;344526;28;83376;-92
2023/03/16 00:39:37;;;;;;;;;;;6.60;94.00;7.30;99709.00;;;;344073;28;89393;-92
2023/03/16 00:39:49;;;;;;;;;;;6.60;94.00;7.20;99715.00;;;;344685;28;83351;-91
2023/03/16 00:40:01;;;;;;;;;;;6.60;94.20;7.10;99711.00;;;;342889;28;87891;-92
2023/03/16 00:40:13;;;;;;;;;;;6.60;94.30;7.10;99710.00;;;;346020;28;83539;-92
2023/03/16 00:40:25;;;;;;;;;;;6.60;94.30;7.10;99717.00;;;;341535;28;91267;-92
2023/03/16 00:40:37;;;;;;;;;;;6.60;94.30;7.20;99712.00;;;;343031;28;83522;-92
2023/03/16 00:40:50;;;;;;;;;;;6.60;94.40;7.10;99708.00;;;;344005;28;90183;-91
2023/03/16 00:41:02;;;;;;;;;;;6.60;94.40;7.10;99706.00;;;;343036;28;83429;-91
2023/03/16 00:41:15;;;;;;;;;;;6.60;94.30;7.00;99718.00;;;;344127;28;90478;-92
2023/03/16 00:41:26;;;;;;;;;;;6.60;94.80;6.90;99713.00;;;;344534;28;83390;-90
2023/03/16 00:41:38;;;;;;;;;;;6.50;94.90;7.00;99707.00;;;;344029;28;91529;-92
2023/03/16 00:41:50;;;;;;;;;;;6.50;94.80;6.90;99704.00;;;;344739;28;83433;-91
2023/03/16 00:42:03;;;;;;;;;;;6.50;94.70;6.80;99711.00;;;;342549;28;89332;-91
2023/03/16 00:42:15;;;;;;;;;;;6.50;94.70;6.80;99704.00;;;;344412;28;83632;-91
2023/03/16 00:42:28;;;;;;;;;;;6.50;94.70;6.80;99714.00;;;;342945;28;91528;-92
2023/03/16 00:42:40;;;;;;;;;;;6.50;94.80;6.90;99717.00;;;;343452;28;82450;-91
2023/03/16 00:42:53;;;;;;;;;;;6.50;94.90;6.90;99706.00;;;;344102;28;90093;-91
2023/03/16 00:43:05;;;;;;;;;;;6.50;95.20;6.80;99711.00;;;;344514;28;83502;-92
2023/03/16 00:43:17;;;;;;;;;;;6.50;95.10;6.80;99712.00;;;;341520;28;89291;-92
2023/03/16 00:43:39;;;;;;;;;;;6.50;95.10;6.90;99709.00;;;;343141;28;83456;-91
2023/03/16 00:43:52;;;;;;;;;;;6.50;95.00;6.90;99710.00;;;;342854;28;89696;-91
2023/03/16 00:44:04;;;;;;;;;;;6.50;95.10;6.90;99709.00;;;;341828;28;82591;-92
2023/03/16 00:44:16;;;;;;;;;;;6.50;95.30;7.00;99699.00;;;;342898;28;88504;-91
2023/03/16 00:44:28;;;;;;;;;;;6.50;94.90;7.10;99701.00;;;;341823;28;83236;-91
2023/03/16 00:44:42;;;;;;;;;;;6.50;94.90;7.10;99700.00;;;;342700;28;88877;-92
2023/03/16 00:44:58;;;;;;;;;;;6.50;94.90;7.10;99695.00;;;;343393;28;82567;-91
2023/03/16 00:45:10;;;;;;;;;;;6.50;94.90;7.10;99696.00;;;;344223;28;91101;-91
2023/03/16 00:45:22;;;;;;;;;;;6.50;94.80;7.00;99699.00;;;;343140;28;82560;-91
2023/03/16 00:45:35;;;;;;;;;;;6.50;95.00;7.00;99700.00;;;;344305;28;88397;-91
2023/03/16 00:45:46;;;;;;;;;;;6.50;95.10;7.10;99695.00;;;;343515;28;82375;-91
2023/03/16 00:46:05;;;;;;;;;;;6.40;94.90;7.10;99710.00;;;;342758;28;91049;-92
2023/03/16 00:46:17;;;;;;;;;;;6.40;94.90;7.00;99695.00;;;;344481;28;83553;-92
2023/03/16 00:46:29;;;;;;;;;;;6.50;94.90;7.10;99711.00;;;;341706;28;88410;-91
2023/03/16 00:46:41;;;;;;;;;;;6.50;95.00;6.90;99706.00;;;;343149;28;83241;-91
2023/03/16 00:46:53;;;;;;;;;;;6.40;95.20;7.10;99699.00;;;;343950;28;90592;-91
2023/03/16 00:47:07;;;;;;;;;;;6.50;95.10;7.10;99700.00;;;;344697;28;83446;-91
2023/03/16 00:47:19;;;;;;;;;;;6.40;95.00;7.10;99703.00;;;;341535;28;87681;-91
2023/03/16 00:47:32;;;;;;;;;;;6.50;95.20;7.20;99694.00;;;;343172;28;82503;-92
2023/03/16 00:47:44;;;;;;;;;;;6.40;95.10;7.20;99704.00;;;;344318;28;91428;-91
2023/03/16 00:47:56;;;;;;;;;;;6.50;95.10;7.10;99703.00;;;;346061;28;83224;-91
2023/03/16 00:48:07;;;;;;;;;;;6.50;95.10;7.10;99700.00;;;;343924;28;91486;-92
2023/03/16 00:48:23;;;;;;;;;;;6.50;95.20;7.20;99701.00;;;;342009;28;83541;-91
2023/03/16 00:48:35;;;;;;;;;;;6.50;95.00;7.10;99698.00;;;;341667;28;87783;-91
2023/03/16 00:48:47;;;;;;;;;;;6.50;95.10;7.00;99701.00;;;;343080;28;83296;-92
2023/03/16 00:49:01;;;;;;;;;;;6.50;95.40;6.90;99696.00;;;;343045;28;88415;-91
2023/03/16 00:49:13;;;;;;;;;;;6.50;95.60;6.80;99705.00;;;;343390;28;83025;-92
2023/03/16 00:49:25;;;;;;;;;;;6.40;95.80;6.70;99700.00;;;;343047;28;88662;-91
2023/03/16 00:49:36;;;;;;;;;;;6.40;96.00;6.70;99692.00;;;;343296;28;83587;-91
2023/03/16 00:49:48;;;;;;;;;;;6.40;96.00;6.70;99702.00;;;;342704;28;91121;-91
2023/03/16 00:50:00;;;;;;;;;;;6.40;95.90;6.80;99697.00;;;;340758;28;82430;-92
2023/03/16 00:50:12;;;;;;;;;;;6.40;95.90;6.90;99699.00;;;;342964;28;87511;-91
2023/03/16 00:50:24;;;;;;;;;;;6.40;95.90;7.00;99700.00;;;;344432;28;82712;-92
2023/03/16 00:50:38;;;;;;;;;;;6.40;95.80;6.90;99695.00;;;;344358;28;88392;-91
2023/03/16 00:50:53;;;;;;;;;;;6.40;96.00;6.90;99680.00;;;;343014;28;83271;-91
2023/03/16 00:51:06;;;;;;;;;;;6.40;96.00;6.80;99708.00;;;;342798;28;90856;-91
2023/03/16 00:51:18;;;;;;;;;;;6.40;95.90;6.70;99704.00;;;;341988;28;82532;-91
2023/03/16 00:51:32;;;;;;;;;;;6.40;95.90;6.80;99698.00;;;;346743;27;89463;-91
2023/03/16 00:51:45;;;;;;;;;;;6.30;96.20;6.90;99711.00;;;;344788;28;82489;-91
2023/03/16 00:51:56;;;;;;;;;;;6.40;95.90;7.00;99700.00;;;;342875;28;89527;-91
2023/03/16 00:52:13;;;;;;;;;;;6.40;95.70;6.90;99698.00;;;;343367;28;83217;-92
2023/03/16 00:52:26;;;;;;;;;;;6.30;95.60;6.90;99694.00;;;;342919;28;88892;-91
2023/03/16 00:52:38;;;;;;;;;;;6.40;96.10;6.80;99700.00;;;;343325;28;83502;-91
2023/03/16 00:52:52;;;;;;;;;;;6.30;96.00;6.70;99697.00;;;;342960;28;90386;-91
2023/03/16 00:53:05;;;;;;;;;;;6.30;96.10;6.80;99698.00;;;;346143;28;83181;-91
2023/03/16 00:53:16;;;;;;;;;;;6.40;96.10;6.90;99704.00;;;;341360;28;91236;-91
2023/03/16 00:53:28;;;;;;;;;;;6.30;95.90;7.00;99705.00;;;;343373;28;82530;-91
2023/03/16 00:53:42;;;;;;;;;;;6.30;95.60;7.00;99706.00;;;;344325;28;89406;-91
2023/03/16 00:53:53;;;;;;;;;;;6.30;95.70;6.90;99711.00;;;;344526;28;83389;-91
2023/03/16 00:54:05;;;;;;;;;;;6.30;95.70;7.00;99702.00;;;;341705;28;87122;-91
2023/03/16 00:54:17;;;;;;;;;;;6.30;95.70;7.00;99707.00;;;;344528;28;83481;-92
2023/03/16 00:54:31;;;;;;;;;;;6.40;95.80;7.00;99700.00;;;;344021;28;90717;-91
2023/03/16 00:54:44;;;;;;;;;;;6.30;95.80;6.90;99708.00;;;;346126;28;83378;-91
2023/03/16 00:54:56;;;;;;;;;;;6.40;96.10;6.90;99706.00;;;;342706;28;90309;-91
2023/03/16 00:55:08;;;;;;;;;;;6.30;95.90;6.90;99708.00;;;;343407;28;82386;-91
2023/03/16 00:55:20;;;;;;;;;;;6.30;96.00;6.90;99707.00;;;;341258;28;89098;-91
2023/03/16 00:55:32;;;;;;;;;;;6.30;96.00;6.80;99700.00;;;;342034;28;83418;-92
2023/03/16 00:55:44;;;;;;;;;;;6.30;96.30;6.90;99704.00;;;;341605;28;89623;-91
2023/03/16 00:55:55;;;;;;;;;;;6.30;96.30;7.00;99707.00;;;;343147;28;83608;-91
2023/03/16 00:56:08;;;;;;;;;;;6.30;96.10;6.90;99714.00;;;;345389;28;90098;-91
2023/03/16 00:56:20;;;;;;;;;;;6.30;96.20;7.00;99709.00;;;;343023;28;83149;-91
2023/03/16 00:56:33;;;;;;;;;;;6.30;96.00;6.80;99715.00;;;;344002;28;91674;-91
2023/03/16 00:56:45;;;;;;;;;;;6.30;96.00;6.80;99713.00;;;;346150;28;83407;-91
2023/03/16 00:56:57;;;;;;;;;;;6.30;96.10;6.80;99716.00;;;;342555;28;88375;-91
2023/03/16 00:57:10;;;;;;;;;;;6.30;96.10;6.80;99707.00;;;;342059;28;82397;-91
2023/03/16 00:57:23;;;;;;;;;;;6.30;96.10;6.80;99709.00;;;;343900;28;87358;-91
2023/03/16 00:57:35;;;;;;;;;;;6.40;96.40;6.90;99718.00;;;;344296;28;83535;-91
2023/03/16 00:57:48;;;;;;;;;;;6.30;96.20;6.90;99705.00;;;;345521;28;90482;-91
2023/03/16 00:58:03;;;;;;;;;;;6.30;96.10;6.80;99713.00;;;;343174;28;83536;-91
2023/03/16 00:58:15;;;;;;;;;;;6.30;96.30;6.80;99712.00;;;;342625;28;89267;-91
2023/03/16 00:58:27;;;;;;;;;;;6.30;96.40;6.70;99704.00;;;;344371;28;83597;-91
2023/03/16 00:58:41;;;;;;;;;;;6.30;96.50;6.70;99715.00;;;;344047;28;90213;-91
2023/03/16 00:58:56;;;;;;;;;;;6.30;96.60;6.70;99718.00;;;;344517;28;82630;-92
2023/03/16 00:59:08;;;;;;;;;;;6.30;96.70;6.70;99713.00;;;;341263;28;89416;-91
2023/03/16 00:59:20;;;;;;;;;;;6.30;96.70;6.70;99709.00;;;;344686;28;83310;-91
2023/03/16 00:59:36;;;;;;;;;;;6.30;96.70;6.60;99710.00;;;;343018;28;87797;-91
2023/03/16 00:59:48;;;;;;;;;;;6.30;96.90;6.70;99716.00;;;;342061;28;83122;-91
2023/03/16 01:00:09;;;;;;;;;;;6.30;96.90;6.70;99709.00;;;;343981;28;90683;-91
2023/03/16 01:00:21;;;;;;;;;;;6.20;96.80;6.60;99715.00;;;;343444;28;83323;-91
2023/03/16 01:00:32;;;;;;;;;;;6.20;96.80;6.60;99717.00;;;;341700;28;88330;-92
2023/03/16 01:00:45;;;;;;;;;;;6.20;97.00;6.60;99714.00;;;;340878;28;82301;-92
2023/03/16 01:00:58;;;;;;;;;;;6.30;97.10;6.60;99717.00;;;;342771;28;92467;-92
2023/03/16 01:01:15;;;;;;;;;;;6.20;97.20;6.70;99707.00;;;;342105;28;83452;-90
2023/03/16 01:01:26;;;;;;;;;;;6.20;96.90;6.70;99713.00;;;;341454;28;91928;-90
2023/03/16 01:01:38;;;;;;;;;;;6.20;96.90;6.70;99712.00;;;;343344;28;82519;-92
2023/03/16 01:01:53;;;;;;;;;;;6.20;97.20;6.70;99714.00;;;;344377;28;89072;-90
2023/03/16 01:02:06;;;;;;;;;;;6.20;96.90;6.80;99724.00;;;;344434;28;83521;-91
2023/03/16 01:02:22;;;;;;;;;;;6.20;96.60;6.70;99711.00;;;;342706;28;91500;-91
2023/03/16 01:02:35;;;;;;;;;;;6.20;96.40;6.80;99705.00;;;;340589;28;83499;-91
2023/03/16 01:02:47;;;;;;;;;;;6.20;96.20;6.80;99708.00;;;;345131;28;90009;-91
2023/03/16 01:02:59;;;;;;;;;;;6.20;96.10;6.80;99718.00;;;;343129;28;82513;-92
2023/03/16 01:03:11;;;;;;;;;;;6.20;96.00;6.70;99716.00;;;;341576;28;89312;-91
2023/03/16 01:03:23;;;;;;;;;;;6.20;96.10;6.70;99716.00;;;;343423;28;82495;-91
2023/03/16 01:03:35;;;;;;;;;;;6.20;96.20;6.70;99717.00;;;;342797;28;90370;-91
2023/03/16 01:03:47;;;;;;;;;;;6.20;96.50;6.70;99715.00;;;;346107;28;82456;-91
2023/03/16 01:03:59;;;;;;;;;;;6.20;96.50;6.70;99715.00;;;;342782;28;91558;-92
2023/03/16 01:04:10;;;;;;;;;;;6.20;96.30;6.70;99707.00;;;;343053;28;83580;-91
2023/03/16 01:04:22;;;;;;;;;;;6.20;96.50;6.80;99706.00;;;;342937;28;89646;-91